createdAt,value
2023-01-13T00:01:30.170Z,21.77
2023-01-13T00:03:57.628Z,20.87
2023-01-13T00:06:27.340Z,21.13
2023-01-13T00:08:54.626Z,19.50
2023-01-13T00:11:25.966Z,16.70
2023-01-13T00:13:52.673Z,13.60
2023-01-13T00:16:21.005Z,12.47
2023-01-13T00:18:51.217Z,16.00
2023-01-13T00:21:24.184Z,18.30
2023-01-13T00:23:53.890Z,19.77
2023-01-13T00:26:27.625Z,16.40
2023-01-13T00:28:59.159Z,17.50
2023-01-13T00:31:28.562Z,18.57
2023-01-13T00:34:02.998Z,17.80
2023-01-13T00:36:31.065Z,17.80
2023-01-13T00:38:59.052Z,28.63
2023-01-13T00:41:26.763Z,16.90
2023-01-13T00:43:53.630Z,23.63
2023-01-13T00:46:22.684Z,16.50
2023-01-13T00:48:51.393Z,15.93
2023-01-13T00:51:22.324Z,22.93
2023-01-13T00:53:51.662Z,20.57
2023-01-13T00:56:34.053Z,22.53
2023-01-13T00:59:05.457Z,23.33
2023-01-13T01:01:33.486Z,20.03
2023-01-13T01:04:00.311Z,25.63
2023-01-13T01:06:27.683Z,19.47
2023-01-13T01:08:55.979Z,21.20
2023-01-13T01:11:26.784Z,21.77
2023-01-13T01:13:56.385Z,22.30
2023-01-13T01:16:27.183Z,14.60
2023-01-13T01:18:54.911Z,17.63
2023-01-13T01:21:24.154Z,20.43
2023-01-13T01:23:51.160Z,22.50
2023-01-13T01:26:24.461Z,14.80
2023-01-13T01:28:51.746Z,18.60
2023-01-13T01:31:34.016Z,27.20
2023-01-13T01:34:01.652Z,19.53
2023-01-13T01:36:30.218Z,20.97
2023-01-13T01:38:58.700Z,23.00
2023-01-13T01:41:31.812Z,24.40
2023-01-13T01:44:49.327Z,17.93
2023-01-13T01:47:19.320Z,22.50
2023-01-13T01:49:47.675Z,22.47
2023-01-13T01:52:18.668Z,21.20
2023-01-13T01:55:11.931Z,19.93
2023-01-13T01:57:41.239Z,18.17
2023-01-13T02:00:09.561Z,18.70
2023-01-13T02:02:37.749Z,18.93
2023-01-13T02:05:04.957Z,21.70
2023-01-13T02:07:36.089Z,22.27
2023-01-13T02:10:09.208Z,24.20
2023-01-13T02:12:37.015Z,13.73
2023-01-13T02:15:18.347Z,22.47
2023-01-13T02:18:18.812Z,25.03
2023-01-13T02:21:19.564Z,20.87
2023-01-13T02:24:41.473Z,24.73
2023-01-13T02:27:48.785Z,20.53
2023-01-13T02:31:03.143Z,21.23
2023-01-13T02:34:03.797Z,27.70
2023-01-13T02:37:07.085Z,21.77
2023-01-13T02:39:54.744Z,17.90
2023-01-13T02:42:51.373Z,17.20
2023-01-13T02:45:44.240Z,23.17
2023-01-13T02:48:15.114Z,24.37
2023-01-13T02:51:00.951Z,23.83
2023-01-13T02:53:56.514Z,18.27
2023-01-13T02:56:26.585Z,25.07
2023-01-13T02:58:57.771Z,22.27
2023-01-13T03:01:25.346Z,20.17
2023-01-13T03:03:52.267Z,34.47
2023-01-13T03:06:49.263Z,18.73
2023-01-13T03:09:27.498Z,24.37
2023-01-13T03:12:21.097Z,17.87
2023-01-13T03:15:26.036Z,17.20
2023-01-13T03:18:31.190Z,15.97
2023-01-13T03:21:07.238Z,17.93
2023-01-13T03:23:51.971Z,25.10
2023-01-13T03:26:35.324Z,22.30
2023-01-13T03:29:20.695Z,24.07
2023-01-13T03:32:15.240Z,25.33
2023-01-13T03:34:55.102Z,20.97
2023-01-13T03:37:31.824Z,21.63
2023-01-13T03:40:07.804Z,18.47
2023-01-13T03:42:38.189Z,19.23
2023-01-13T03:45:17.383Z,18.63
2023-01-13T03:47:57.559Z,17.33
2023-01-13T03:50:35.833Z,19.70
2023-01-13T03:53:40.016Z,21.07
2023-01-13T03:56:39.862Z,16.53
2023-01-13T03:59:15.424Z,15.73
2023-01-13T04:01:57.317Z,12.40
2023-01-13T04:04:35.696Z,15.60
2023-01-13T04:07:10.374Z,12.63
2023-01-13T04:09:54.970Z,17.37
2023-01-13T04:13:05.064Z,10.50
2023-01-13T04:15:39.407Z,9.63
2023-01-13T04:18:25.843Z,20.00
2023-01-13T04:20:56.465Z,12.53
2023-01-13T04:23:24.521Z,11.63
2023-01-13T04:25:52.204Z,11.07
2023-01-13T04:28:19.959Z,12.23
2023-01-13T04:30:48.060Z,12.03
2023-01-13T04:33:17.344Z,14.87
2023-01-13T04:35:46.037Z,8.53
2023-01-13T04:38:19.276Z,9.67
2023-01-13T04:40:48.356Z,6.47
2023-01-13T04:43:15.827Z,6.73
2023-01-13T04:45:43.795Z,9.33
2023-01-13T04:48:10.965Z,13.13
2023-01-13T04:50:37.941Z,10.73
2023-01-13T04:53:05.712Z,10.53
2023-01-13T04:55:33.045Z,9.70
2023-01-13T04:58:09.341Z,10.43
2023-01-13T05:00:37.244Z,11.17
2023-01-13T05:03:05.118Z,7.90
2023-01-13T05:05:32.071Z,8.13
2023-01-13T05:07:58.882Z,6.50
2023-01-13T05:10:26.829Z,10.37
2023-01-13T05:13:12.204Z,7.77
2023-01-13T05:16:00.229Z,10.50
2023-01-13T05:18:30.550Z,9.23
2023-01-13T05:20:57.922Z,10.10
2023-01-13T05:23:43.037Z,7.73
2023-01-13T05:26:09.855Z,6.53
2023-01-13T05:28:36.610Z,13.53
2023-01-13T05:31:03.399Z,5.67
2023-01-13T05:33:30.220Z,16.10
2023-01-13T05:36:01.573Z,11.30
2023-01-13T05:38:28.306Z,10.43
2023-01-13T05:41:13.339Z,19.47
2023-01-13T05:43:40.153Z,9.97
2023-01-13T05:46:09.545Z,8.80
2023-01-13T05:48:40.065Z,11.50
2023-01-13T05:51:10.009Z,11.73
2023-01-13T05:53:36.910Z,16.17
2023-01-13T05:56:09.293Z,11.90
2023-01-13T05:58:36.506Z,11.40
2023-01-13T06:01:07.457Z,13.57
2023-01-13T06:03:35.172Z,14.93
2023-01-13T06:06:03.850Z,11.37
2023-01-13T06:08:32.449Z,12.27
2023-01-13T06:10:59.865Z,9.00
2023-01-13T06:13:27.352Z,13.07
2023-01-13T06:15:59.983Z,14.30
2023-01-13T06:18:27.958Z,14.97
2023-01-13T06:20:55.685Z,11.80
2023-01-13T06:23:22.713Z,10.53
2023-01-13T06:26:15.796Z,8.50
2023-01-13T06:28:42.982Z,19.57
2023-01-13T06:31:11.104Z,11.23
2023-01-13T06:33:45.827Z,15.30
2023-01-13T06:36:22.333Z,9.37
2023-01-13T06:38:55.784Z,15.53
2023-01-13T06:41:43.496Z,20.10
2023-01-13T06:44:10.245Z,10.47
2023-01-13T06:46:37.245Z,11.90
2023-01-13T06:49:05.253Z,9.57
2023-01-13T06:51:32.108Z,12.93
2023-01-13T06:53:58.890Z,12.37
2023-01-13T06:56:25.622Z,14.03
2023-01-13T06:58:52.340Z,10.73
2023-01-13T07:01:19.144Z,17.03
2023-01-13T07:03:47.041Z,11.13
2023-01-13T07:06:13.837Z,13.33
2023-01-13T07:08:40.612Z,15.87
2023-01-13T07:11:07.355Z,18.23
2023-01-13T07:13:54.175Z,10.63
2023-01-13T07:16:20.943Z,17.07
2023-01-13T07:18:47.694Z,14.67
2023-01-13T07:21:18.660Z,14.73
2023-01-13T07:23:46.714Z,9.60
2023-01-13T07:26:15.248Z,13.00
2023-01-13T07:28:42.656Z,13.00
2023-01-13T07:31:21.666Z,14.40
2023-01-13T07:33:48.759Z,16.47
2023-01-13T07:36:16.013Z,10.40
2023-01-13T07:38:44.492Z,15.83
2023-01-13T07:41:39.975Z,16.63
2023-01-13T07:44:10.739Z,11.27
2023-01-13T07:46:38.689Z,14.23
2023-01-13T07:49:06.901Z,19.80
2023-01-13T07:51:39.873Z,13.67
2023-01-13T07:54:07.728Z,14.70
2023-01-13T07:56:34.919Z,13.17
2023-01-13T07:59:01.998Z,12.10
2023-01-13T08:01:29.222Z,25.47
2023-01-13T08:03:57.587Z,16.67
2023-01-13T08:06:25.519Z,10.27
2023-01-13T08:08:53.664Z,13.00
2023-01-13T08:11:23.403Z,16.97
2023-01-13T08:13:50.516Z,16.60
2023-01-13T08:16:17.400Z,12.30
2023-01-13T08:18:44.227Z,13.53
2023-01-13T08:21:15.510Z,13.17
2023-01-13T08:23:45.041Z,9.23
2023-01-13T08:26:16.392Z,13.10
2023-01-13T08:28:44.201Z,12.63
2023-01-13T08:31:15.913Z,11.57
2023-01-13T08:33:42.994Z,15.20
2023-01-13T08:36:12.356Z,21.10
2023-01-13T08:38:40.871Z,14.57
2023-01-13T08:41:36.651Z,16.63
2023-01-13T08:44:03.857Z,15.17
2023-01-13T08:46:30.714Z,12.73
2023-01-13T08:48:57.650Z,15.50
2023-01-13T08:51:24.396Z,21.97
2023-01-13T08:53:51.148Z,13.90
2023-01-13T08:56:17.953Z,14.67
2023-01-13T08:58:44.658Z,21.80
2023-01-13T09:01:20.333Z,16.77
2023-01-13T09:03:47.086Z,18.33
2023-01-13T09:06:14.423Z,12.80
2023-01-13T09:08:41.409Z,14.13
2023-01-13T09:11:55.511Z,9.37
2023-01-13T09:14:25.164Z,14.80
2023-01-13T09:16:51.990Z,12.90
2023-01-13T09:19:18.937Z,14.63
2023-01-13T09:21:45.815Z,12.17
2023-01-13T09:24:12.604Z,12.23
2023-01-13T09:26:39.400Z,14.57
2023-01-13T09:29:06.327Z,10.80
2023-01-13T09:31:35.690Z,11.50
2023-01-13T09:34:24.090Z,13.33
2023-01-13T09:36:51.348Z,9.03
2023-01-13T09:39:19.217Z,11.37
2023-01-13T09:42:14.194Z,13.33
2023-01-13T09:45:04.787Z,14.20
2023-01-13T09:47:43.425Z,12.13
2023-01-13T09:50:55.573Z,14.40
2023-01-13T09:53:31.307Z,16.47
2023-01-13T09:55:58.470Z,12.33
2023-01-13T09:58:25.347Z,15.60
2023-01-13T10:01:31.424Z,11.40
2023-01-13T10:04:11.228Z,17.33
2023-01-13T10:06:42.564Z,18.30
2023-01-13T10:09:21.240Z,21.23
2023-01-13T10:12:07.951Z,18.63
2023-01-13T10:14:51.483Z,15.37
2023-01-13T10:17:46.082Z,15.70
2023-01-13T10:20:22.506Z,13.37
2023-01-13T10:23:41.304Z,13.70
2023-01-13T10:26:26.816Z,13.50
2023-01-13T10:28:55.699Z,21.47
2023-01-13T10:31:24.927Z,16.73
2023-01-13T10:34:06.110Z,17.17
2023-01-13T10:36:33.555Z,15.93
2023-01-13T10:39:17.512Z,15.37
2023-01-13T10:41:44.817Z,11.80
2023-01-13T10:44:19.145Z,12.40
2023-01-13T10:46:58.860Z,13.40
2023-01-13T10:49:37.433Z,21.67
2023-01-13T10:52:25.180Z,16.40
2023-01-13T10:54:54.336Z,14.03
2023-01-13T10:57:27.585Z,18.73
2023-01-13T10:59:55.500Z,14.83
2023-01-13T11:02:30.617Z,16.50
2023-01-13T11:05:03.045Z,10.73
2023-01-13T11:07:41.545Z,18.30
2023-01-13T11:10:24.016Z,12.47
2023-01-13T11:13:15.934Z,11.10
2023-01-13T11:16:14.191Z,15.30
2023-01-13T11:19:15.161Z,12.67
2023-01-13T11:22:00.862Z,9.47
2023-01-13T11:24:52.319Z,14.30
2023-01-13T11:27:30.040Z,8.17
2023-01-13T11:30:34.030Z,8.70
2023-01-13T11:33:10.835Z,9.97
2023-01-13T11:36:18.869Z,10.87
2023-01-13T11:38:54.103Z,6.63
2023-01-13T11:41:44.476Z,11.23
2023-01-13T11:44:41.090Z,8.40
2023-01-13T11:47:12.895Z,8.03
2023-01-13T11:49:39.829Z,11.97
2023-01-13T11:52:55.654Z,15.23
2023-01-13T11:56:06.726Z,14.23
2023-01-13T11:59:11.958Z,7.37
2023-01-13T12:02:27.858Z,16.80
2023-01-13T12:05:13.638Z,9.53
2023-01-13T12:08:11.172Z,11.23
2023-01-13T12:11:07.756Z,11.00
2023-01-13T12:14:14.341Z,13.83
2023-01-13T12:16:50.616Z,9.13
2023-01-13T12:19:29.014Z,10.93
2023-01-13T12:22:16.197Z,9.67
2023-01-13T12:25:05.279Z,10.77
2023-01-13T12:28:02.232Z,10.10
2023-01-13T12:30:42.565Z,13.03
2023-01-13T12:33:30.901Z,9.10
2023-01-13T12:36:31.858Z,9.87
2023-01-13T12:39:04.565Z,18.60
2023-01-13T12:42:04.959Z,9.17
2023-01-13T12:44:32.117Z,10.17
2023-01-13T12:47:00.241Z,8.43
2023-01-13T12:49:30.204Z,10.27
2023-01-13T12:51:56.848Z,13.07
2023-01-13T12:54:44.609Z,10.10
2023-01-13T12:57:34.002Z,10.20
2023-01-13T13:00:06.650Z,7.97
2023-01-13T13:03:17.127Z,9.57
2023-01-13T13:06:02.023Z,10.17
2023-01-13T13:09:03.155Z,10.90
2023-01-13T13:12:03.419Z,13.63
2023-01-13T13:14:39.422Z,8.83
2023-01-13T13:17:39.195Z,8.40
2023-01-13T13:20:50.712Z,9.63
2023-01-13T13:23:47.725Z,7.57
2023-01-13T13:26:42.423Z,12.97
2023-01-13T13:29:48.024Z,8.83
2023-01-13T13:32:41.675Z,6.10
2023-01-13T13:35:52.508Z,7.17
2023-01-13T13:39:05.653Z,13.30
2023-01-13T13:41:56.067Z,12.07
2023-01-13T13:44:50.011Z,7.77
2023-01-13T13:47:16.773Z,9.73
2023-01-13T13:49:52.588Z,9.20
2023-01-13T13:52:39.387Z,10.27
2023-01-13T13:55:19.071Z,6.30
2023-01-13T13:57:52.776Z,6.10
2023-01-13T14:00:25.168Z,13.43
2023-01-13T14:03:01.483Z,8.87
2023-01-13T14:05:37.408Z,6.63
2023-01-13T14:08:15.371Z,6.37
2023-01-13T14:10:45.183Z,9.53
2023-01-13T14:13:22.918Z,10.73
2023-01-13T14:16:07.502Z,14.07
2023-01-13T14:18:47.699Z,11.57
2023-01-13T14:21:27.058Z,6.83
2023-01-13T14:24:14.981Z,13.23
2023-01-13T14:26:42.068Z,10.17
2023-01-13T14:29:18.143Z,7.37
2023-01-13T14:31:46.587Z,8.50
2023-01-13T14:34:31.061Z,12.53
2023-01-13T14:36:58.921Z,12.10
2023-01-13T14:39:42.455Z,10.57
2023-01-13T14:42:17.410Z,7.23
2023-01-13T14:44:49.869Z,6.93
2023-01-13T14:47:32.251Z,8.37
2023-01-13T14:50:07.568Z,11.77
2023-01-13T14:52:47.122Z,12.80
2023-01-13T14:55:33.729Z,14.00
2023-01-13T14:58:22.533Z,14.90
2023-01-13T15:00:51.457Z,10.40
2023-01-13T15:03:21.055Z,9.63
2023-01-13T15:05:53.534Z,10.30
2023-01-13T15:08:29.504Z,9.33
2023-01-13T15:11:08.170Z,6.57
2023-01-13T15:13:53.091Z,9.43
2023-01-13T15:16:29.962Z,12.23
2023-01-13T15:18:58.327Z,7.80
2023-01-13T15:21:25.305Z,7.93
2023-01-13T15:23:52.331Z,15.23
2023-01-13T15:26:29.245Z,8.30
2023-01-13T15:28:58.543Z,5.93
2023-01-13T15:31:27.074Z,8.73
2023-01-13T15:33:54.392Z,11.83
2023-01-13T15:36:32.014Z,12.77
2023-01-13T15:39:00.621Z,10.43
2023-01-13T15:41:46.378Z,6.83
2023-01-13T15:44:33.969Z,9.33
2023-01-13T15:47:07.313Z,14.80
2023-01-13T15:49:44.071Z,16.50
2023-01-13T15:52:26.723Z,10.93
2023-01-13T15:54:54.783Z,12.13
2023-01-13T15:57:28.830Z,14.90
2023-01-13T16:00:00.251Z,13.30
2023-01-13T16:02:33.107Z,13.70
2023-01-13T16:04:59.901Z,11.13
2023-01-13T16:07:27.026Z,10.80
2023-01-13T16:09:54.174Z,10.10
2023-01-13T16:12:21.087Z,10.13
2023-01-13T16:14:47.897Z,10.90
2023-01-13T16:17:19.193Z,18.30
2023-01-13T16:19:47.023Z,22.73
2023-01-13T16:22:15.466Z,9.43
2023-01-13T16:24:43.428Z,15.57
2023-01-13T16:27:23.471Z,14.03
2023-01-13T16:29:52.201Z,12.17
2023-01-13T16:32:20.970Z,6.67
2023-01-13T16:34:48.469Z,8.53
2023-01-13T16:37:27.123Z,9.33
2023-01-13T16:39:54.617Z,10.33
2023-01-13T16:42:21.994Z,9.63
2023-01-13T16:44:50.598Z,7.37
2023-01-13T16:47:18.744Z,13.57
2023-01-13T16:49:45.898Z,9.07
2023-01-13T16:52:12.806Z,12.13
2023-01-13T16:54:39.763Z,7.87
2023-01-13T16:57:07.788Z,10.17
2023-01-13T16:59:34.534Z,7.30
2023-01-13T17:02:02.096Z,8.83
2023-01-13T17:04:29.055Z,11.13
2023-01-13T17:07:04.927Z,4.03
2023-01-13T17:09:31.775Z,6.10
2023-01-13T17:11:59.260Z,6.60
2023-01-13T17:14:26.421Z,5.83
2023-01-13T17:16:58.618Z,4.13
2023-01-13T17:19:25.796Z,5.07
2023-01-13T17:21:52.902Z,3.53
2023-01-13T17:24:20.453Z,3.87
2023-01-13T17:26:50.601Z,5.20
2023-01-13T17:29:25.110Z,2.30
2023-01-13T17:31:53.127Z,3.43
2023-01-13T17:34:21.289Z,3.23
2023-01-13T17:36:48.627Z,1.93
2023-01-13T17:39:23.443Z,4.97
2023-01-13T17:41:51.789Z,2.20
2023-01-13T17:44:20.864Z,5.23
2023-01-13T17:46:48.743Z,4.87
2023-01-13T17:49:18.950Z,11.17
2023-01-13T17:51:48.137Z,8.17
2023-01-13T17:54:15.862Z,4.73
2023-01-13T17:56:43.427Z,7.23
2023-01-13T17:59:13.238Z,10.00
2023-01-13T18:01:40.967Z,7.00
2023-01-13T18:04:14.805Z,5.03
2023-01-13T18:06:41.970Z,5.47
2023-01-13T18:09:08.774Z,5.17
2023-01-13T18:11:35.701Z,8.77
2023-01-13T18:14:02.545Z,5.03
2023-01-13T18:16:31.827Z,6.17
2023-01-13T18:19:18.845Z,6.87
2023-01-13T18:22:05.505Z,8.07
2023-01-13T18:24:51.573Z,5.63
2023-01-13T18:27:23.214Z,8.03
2023-01-13T18:29:57.300Z,8.30
2023-01-13T18:32:33.386Z,22.70
2023-01-13T18:35:10.265Z,13.27
2023-01-13T18:37:40.684Z,6.03
2023-01-13T18:40:11.058Z,5.90
2023-01-13T18:42:59.039Z,6.17
2023-01-13T18:45:33.061Z,6.87
2023-01-13T18:48:02.916Z,4.03
2023-01-13T18:50:34.718Z,6.33
2023-01-13T18:53:04.513Z,6.67
2023-01-13T18:55:31.285Z,11.50
2023-01-13T18:57:59.536Z,5.83
2023-01-13T19:00:27.323Z,10.07
2023-01-13T19:05:34.201Z,8.70
2023-01-13T19:08:01.071Z,7.27
2023-01-13T19:10:31.675Z,6.93
2023-01-13T19:12:58.489Z,8.40
2023-01-13T19:15:25.193Z,8.37
2023-01-13T19:17:52.090Z,6.27
2023-01-13T19:20:20.057Z,6.83
2023-01-13T19:22:55.824Z,10.07
2023-01-13T19:25:23.955Z,11.20
2023-01-13T19:27:50.742Z,5.53
2023-01-13T19:30:17.860Z,4.40
2023-01-13T19:32:45.375Z,10.03
2023-01-13T19:35:14.142Z,9.83
2023-01-13T19:37:43.508Z,7.30
2023-01-13T19:40:13.751Z,9.70
2023-01-13T19:43:01.596Z,11.50
2023-01-13T19:45:30.463Z,6.00
2023-01-13T19:48:00.257Z,13.83
2023-01-13T19:50:27.365Z,8.30
2023-01-13T19:52:54.141Z,11.17
2023-01-13T19:55:21.207Z,8.40
2023-01-13T19:57:49.210Z,8.23
2023-01-13T20:00:23.726Z,17.23
2023-01-13T20:02:52.907Z,20.33
2023-01-13T20:05:26.840Z,30.77
2023-01-13T20:07:53.919Z,14.73
2023-01-13T20:10:23.113Z,10.97
2023-01-13T20:12:49.981Z,6.70
2023-01-13T20:15:17.005Z,13.50
2023-01-13T20:17:43.769Z,17.93
2023-01-13T20:20:11.780Z,8.20
2023-01-13T20:22:40.455Z,7.70
2023-01-13T20:25:13.240Z,3.17
2023-01-13T20:27:40.103Z,4.40
2023-01-13T20:30:09.456Z,6.20
2023-01-13T20:32:37.767Z,5.13
2023-01-13T20:35:07.201Z,4.13
2023-01-13T20:37:36.978Z,6.93
2023-01-13T20:40:05.900Z,5.80
2023-01-13T20:42:42.209Z,9.00
2023-01-13T20:45:09.736Z,5.40
2023-01-13T20:47:36.436Z,5.93
2023-01-13T20:50:04.075Z,8.63
2023-01-13T20:52:30.866Z,8.60
2023-01-13T20:54:58.656Z,5.47
2023-01-13T20:57:25.364Z,6.23
2023-01-13T20:59:52.143Z,4.60
2023-01-13T21:02:20.157Z,8.63
2023-01-13T21:04:46.974Z,6.30
2023-01-13T21:07:13.844Z,5.93
2023-01-13T21:09:40.641Z,10.20
2023-01-13T21:12:26.512Z,6.80
2023-01-13T21:15:11.879Z,18.03
2023-01-13T21:17:57.306Z,34.20
2023-01-13T21:20:24.002Z,32.57
2023-01-13T21:22:50.811Z,24.77
2023-01-13T21:25:19.395Z,20.57
2023-01-13T21:27:46.529Z,14.10
2023-01-13T21:30:15.801Z,10.53
2023-01-13T21:32:44.519Z,8.57
2023-01-13T21:35:14.119Z,5.77
2023-01-13T21:37:43.537Z,4.97
2023-01-13T21:40:14.605Z,5.23
2023-01-13T21:43:00.350Z,12.27
2023-01-13T21:45:46.424Z,8.43
2023-01-13T21:48:13.162Z,11.73
2023-01-13T21:50:39.994Z,7.70
2023-01-13T21:53:07.943Z,9.90
2023-01-13T21:55:36.799Z,10.23
2023-01-13T21:58:14.467Z,6.80
2023-01-13T22:00:43.934Z,6.50
2023-01-13T22:03:14.541Z,6.63
2023-01-13T22:05:41.879Z,9.23
2023-01-13T22:08:11.948Z,9.77
2023-01-13T22:10:56.852Z,10.93
2023-01-13T22:13:42.157Z,8.57
2023-01-13T22:16:09.416Z,9.30
2023-01-13T22:18:36.551Z,10.60
2023-01-13T22:21:03.485Z,13.67
2023-01-13T22:23:30.196Z,10.27
2023-01-13T22:26:06.045Z,9.97
2023-01-13T22:28:46.478Z,8.60
2023-01-13T22:31:17.358Z,5.93
2023-01-13T22:33:48.272Z,10.07
2023-01-13T22:36:15.705Z,8.00
2023-01-13T22:38:42.528Z,8.60
2023-01-13T22:41:11.932Z,12.07
2023-01-13T22:43:39.552Z,12.57
2023-01-13T22:46:27.341Z,12.73
2023-01-13T22:48:55.715Z,6.90
2023-01-13T22:51:23.023Z,9.50
2023-01-13T22:53:50.163Z,11.00
2023-01-13T22:56:21.904Z,8.07
2023-01-13T22:58:59.753Z,11.03
2023-01-13T23:01:30.315Z,25.77
2023-01-13T23:03:57.864Z,26.33
2023-01-13T23:06:26.992Z,17.17
2023-01-13T23:08:55.069Z,10.63
2023-01-13T23:11:24.995Z,10.47
2023-01-13T23:13:59.204Z,8.83
2023-01-13T23:16:28.785Z,6.90
2023-01-13T23:18:55.840Z,7.43
2023-01-13T23:21:27.990Z,7.20
2023-01-13T23:23:56.383Z,13.50
2023-01-13T23:26:24.617Z,15.03
2023-01-13T23:28:51.396Z,9.70
2023-01-13T23:31:23.881Z,8.30
2023-01-13T23:33:50.664Z,7.63
2023-01-13T23:36:23.640Z,8.30
2023-01-13T23:38:52.610Z,7.60
2023-01-13T23:41:23.562Z,8.77
2023-01-13T23:43:59.033Z,8.57
2023-01-13T23:46:29.193Z,8.60
2023-01-13T23:48:56.460Z,8.13
2023-01-13T23:51:25.178Z,9.63
2023-01-13T23:53:52.281Z,12.37
2023-01-13T23:56:27.200Z,8.60
2023-01-13T23:58:54.712Z,7.90
